Time;durP1;ratioP1;P1;durP2;ratioP2;P2;SDS_P1;SDS_P2;PMS_P1;PMS_P2;Temp;Humidity;BMP_temperature;BMP_pressure;BME280_temperature;BME280_humidity;BME280_pressure;Samples;Min_cycle;Max_cycle;Signal;HPM_P1;HPM_P2
2022/10/27 00:00:18;;;;;;;19.60;6.60;;;11.00;42.70;;;;;;5046249;28;20475;-88
2022/10/27 00:06:07;;;;;;;26.77;6.30;;;11.00;42.80;;;;;;5049936;28;20421;-88
2022/10/27 00:11:55;;;;;;;14.20;5.70;;;10.90;42.60;;;;;;5048465;28;20405;-88
2022/10/27 00:18:12;;;;;;;31.63;6.77;;;10.90;42.90;;;;;;5041136;28;20413;-88
2022/10/27 00:21:17;;;;;;;15.60;5.80;;;10.90;42.80;;;;;;5051040;28;20430;-88
2022/10/27 00:27:05;;;;;;;17.53;6.83;;;10.80;42.60;;;;;;5049078;28;20441;-88
2022/10/27 00:29:43;;;;;;;21.40;6.60;;;10.80;42.60;;;;;;5055549;28;20456;-88
2022/10/27 00:35:30;;;;;;;15.50;7.60;;;10.80;42.60;;;;;;5040966;28;20835;-88
2022/10/27 00:38:43;;;;;;;19.17;5.90;;;10.80;46.60;;;;;;5045566;28;20454;-88
2022/10/27 00:44:35;;;;;;;18.67;6.07;;;10.80;42.60;;;;;;5040938;28;20998;-88
2022/10/27 00:47:25;;;;;;;20.13;7.03;;;10.70;42.50;;;;;;5042751;28;20487;-88
2022/10/27 00:57:24;;;;;;;22.13;6.53;;;10.60;42.30;;;;;;5047791;28;20532;-88
2022/10/27 01:03:21;;;;;;;12.17;6.10;;;10.60;42.40;;;;;;5037201;28;20453;-88
2022/10/27 01:05:48;;;;;;;21.73;6.60;;;10.50;42.50;;;;;;5042552;28;20429;-82
2022/10/27 01:08:30;;;;;;;15.07;5.70;;;10.50;42.30;;;;;;5054148;28;20471;-82
2022/10/27 01:11:35;;;;;;;18.80;6.33;;;10.50;42.30;;;;;;5052545;28;20434;-82
2022/10/27 01:14:06;;;;;;;21.80;6.13;;;10.50;42.30;;;;;;5038150;28;20453;-82
2022/10/27 01:17:03;;;;;;;18.83;5.70;;;10.50;42.30;;;;;;5047818;28;20410;-82
2022/10/27 01:20:05;;;;;;;9.50;5.60;;;10.40;42.20;;;;;;5040987;28;20442;-82
2022/10/27 01:23:05;;;;;;;18.13;6.33;;;10.40;42.20;;;;;;5050697;28;20500;-82
2022/10/27 01:29:23;;;;;;;10.63;5.50;;;10.40;42.20;;;;;;5046566;28;20972;-83
2022/10/27 01:32:42;;;;;;;12.47;5.43;;;10.30;42.10;;;;;;5054536;28;20771;-82
2022/10/27 01:35:17;;;;;;;16.20;5.57;;;10.30;42.10;;;;;;5052650;28;20439;-81
2022/10/27 01:38:07;;;;;;;18.03;5.67;;;10.30;42.10;;;;;;5052503;28;20414;-82
2022/10/27 01:41:24;;;;;;;15.87;6.63;;;10.30;42.10;;;;;;5047535;28;20438;-83
2022/10/27 01:44:06;;;;;;;14.17;6.03;;;10.30;42.10;;;;;;5040517;28;20451;-82
2022/10/27 01:46:36;;;;;;;21.13;6.60;;;10.30;42.10;;;;;;5053031;28;20530;-82
2022/10/27 01:49:07;;;;;;;28.83;7.07;;;10.30;42.10;;;;;;5051442;28;20458;-82
2022/10/27 01:51:42;;;;;;;14.63;5.67;;;10.30;42.10;;;;;;5047853;28;20993;-82
2022/10/27 01:54:24;;;;;;;18.53;5.20;;;10.20;46.10;;;;;;5053755;28;20849;-82
2022/10/27 01:57:03;;;;;;;17.43;6.30;;;10.10;42.00;;;;;;5052717;28;20443;-82
2022/10/27 02:00:06;;;;;;;8.97;5.60;;;10.10;42.20;;;;;;5053421;28;20430;-82
2022/10/27 02:02:56;;;;;;;17.53;5.20;;;10.20;42.00;;;;;;5042762;28;20401;-82
2022/10/27 02:05:40;;;;;;;12.30;5.40;;;10.20;42.00;;;;;;5049944;28;20439;-83
2022/10/27 02:08:19;;;;;;;18.43;5.97;;;10.10;42.20;;;;;;5053535;28;20523;-82
2022/10/27 02:11:07;;;;;;;11.83;4.73;;;10.10;41.90;;;;;;5043629;28;20430;-82
2022/10/27 02:13:44;;;;;;;32.10;5.87;;;10.00;42.00;;;;;;5048639;28;20415;-82
2022/10/27 02:16:44;;;;;;;13.80;5.53;;;10.00;41.90;;;;;;5039006;28;20502;-82
2022/10/27 02:19:34;;;;;;;16.67;5.13;;;10.00;41.80;;;;;;5045840;28;20452;-82
2022/10/27 02:25:27;;;;;;;8.80;5.37;;;9.90;42.70;;;;;;5044208;28;20412;-88
2022/10/27 02:31:53;;;;;;;18.07;6.70;;;9.80;42.60;;;;;;5052649;28;20410;-88
2022/10/27 02:34:48;;;;;;;22.83;6.30;;;9.90;42.70;;;;;;5034805;28;20427;-88
2022/10/27 02:37:30;;;;;;;26.83;6.57;;;9.80;42.60;;;;;;5046917;28;20414;-82
2022/10/27 02:40:12;;;;;;;11.50;6.47;;;9.80;42.80;;;;;;5047932;28;20412;-82
2022/10/27 02:42:48;;;;;;;10.43;5.00;;;9.80;42.60;;;;;;5050254;28;20441;-82
2022/10/27 02:45:19;;;;;;;13.20;5.37;;;9.80;42.60;;;;;;5046845;28;20812;-81
2022/10/27 02:48:00;;;;;;;17.40;5.50;;;9.80;42.60;;;;;;5042606;28;20834;-82
2022/10/27 02:51:06;;;;;;;19.13;5.70;;;9.80;42.70;;;;;;5053219;28;20822;-82
2022/10/27 02:53:36;;;;;;;19.00;5.67;;;9.80;42.70;;;;;;5035495;28;20914;-82
2022/10/27 02:56:42;;;;;;;14.73;6.50;;;9.80;42.90;;;;;;5045781;28;20418;-82
2022/10/27 02:59:24;;;;;;;11.70;5.43;;;9.70;42.70;;;;;;5044703;28;20425;-82
2022/10/27 03:01:50;;;;;;;23.63;6.10;;;9.70;42.60;;;;;;5046630;28;20433;-82
2022/10/27 03:04:16;;;;;;;16.20;5.60;;;9.70;42.60;;;;;;5036551;28;20469;-82
2022/10/27 03:10:30;;;;;;;13.90;5.10;;;9.60;42.50;;;;;;5053091;28;20631;-88
2022/10/27 03:19:39;;;;;;;22.27;7.13;;;9.60;42.60;;;;;;5056939;28;20480;-88
2022/10/27 03:25:39;;;;;;;17.10;5.83;;;9.60;42.50;;;;;;5052870;28;20222;-82
2022/10/27 03:28:05;;;;;;;11.57;5.67;;;9.60;42.50;;;;;;5055039;28;20518;-82
2022/10/27 03:30:36;;;;;;;24.70;5.80;;;9.60;42.50;;;;;;5051932;28;20418;-82
2022/10/27 03:33:12;;;;;;;11.23;6.10;;;9.70;42.60;;;;;;5054408;28;20270;-82
2022/10/27 03:36:30;;;;;;;21.67;5.80;;;9.60;42.50;;;;;;5043346;28;20932;-83
2022/10/27 03:39:00;;;;;;;24.63;5.67;;;9.50;42.40;;;;;;5042431;28;20479;-79
2022/10/27 03:41:26;;;;;;;12.90;5.90;;;9.50;42.40;;;;;;5049202;28;20453;-79
2022/10/27 03:44:24;;;;;;;9.50;5.23;;;9.50;42.40;;;;;;5046091;28;20446;-79
2022/10/27 03:46:54;;;;;;;15.23;6.43;;;9.40;46.30;;;;;;5042770;28;20203;-79
2022/10/27 03:49:20;;;;;;;14.87;6.70;;;9.40;42.30;;;;;;5046544;28;20453;-79
2022/10/27 03:51:48;;;;;;;22.07;6.00;;;9.40;42.30;;;;;;5055160;28;20425;-82
2022/10/27 03:54:59;;;;;;;15.83;6.00;;;9.40;42.30;;;;;;5048994;28;20182;-82
2022/10/27 03:57:36;;;;;;;23.83;6.37;;;9.40;42.30;;;;;;5046975;28;20412;-82
2022/10/27 04:00:07;;;;;;;22.70;5.70;;;9.40;42.30;;;;;;5036709;28;20461;-84
2022/10/27 04:02:36;;;;;;;19.03;6.20;;;9.40;42.30;;;;;;5047813;28;20438;-82
2022/10/27 04:05:02;;;;;;;15.17;6.37;;;9.40;42.50;;;;;;5045708;28;20430;-82
2022/10/27 04:07:36;;;;;;;23.90;6.03;;;9.40;42.30;;;;;;5044000;28;20485;-82
2022/10/27 04:10:06;;;;;;;14.40;5.83;;;9.40;42.50;;;;;;5047616;28;20603;-82
2022/10/27 04:12:49;;;;;;;18.20;5.77;;;9.30;42.40;;;;;;5055427;28;20414;-81
2022/10/27 04:15:26;;;;;;;14.93;5.87;;;9.30;42.30;;;;;;5051195;28;20525;-83
2022/10/27 04:18:12;;;;;;;16.43;6.10;;;9.30;42.40;;;;;;5046676;28;20427;-82
2022/10/27 04:20:48;;;;;;;16.03;6.43;;;9.30;42.20;;;;;;5054302;28;20458;-82
2022/10/27 04:23:14;;;;;;;17.67;6.27;;;9.30;42.20;;;;;;5055694;28;20461;-80
2022/10/27 04:25:40;;;;;;;13.53;5.93;;;9.20;42.30;;;;;;5053908;28;20541;-79
2022/10/27 04:28:07;;;;;;;15.50;6.30;;;9.10;42.00;;;;;;5053641;28;20537;-79
2022/10/27 04:30:34;;;;;;;24.23;6.40;;;9.10;42.10;;;;;;5040976;28;20643;-79
2022/10/27 04:32:59;;;;;;;17.40;6.23;;;9.20;42.10;;;;;;5053353;28;20860;-79
2022/10/27 04:35:30;;;;;;;26.13;6.07;;;9.10;42.10;;;;;;5041474;28;20438;-79
2022/10/27 04:38:02;;;;;;;12.83;6.10;;;9.20;42.10;;;;;;5048895;28;20709;-79
2022/10/27 04:40:43;;;;;;;12.33;6.20;;;9.20;42.40;;;;;;5052081;28;20533;-79
2022/10/27 04:43:24;;;;;;;18.00;7.13;;;9.20;42.20;;;;;;5045622;28;20444;-79
2022/10/27 04:46:18;;;;;;;15.83;6.30;;;9.30;42.20;;;;;;5040096;28;20427;-79
2022/10/27 04:48:50;;;;;;;15.87;6.00;;;9.30;42.30;;;;;;5044483;28;20497;-79
2022/10/27 04:51:15;;;;;;;16.00;7.17;;;9.30;42.50;;;;;;5054992;28;20422;-79
2022/10/27 04:54:18;;;;;;;20.77;6.70;;;9.40;42.30;;;;;;5051972;28;20461;-79
2022/10/27 04:56:49;;;;;;;15.93;6.80;;;9.40;42.30;;;;;;5041366;28;20274;-78
2022/10/27 04:59:15;;;;;;;30.33;6.90;;;9.50;42.40;;;;;;5047980;28;20433;-79
2022/10/27 05:02:12;;;;;;;13.70;6.13;;;9.50;42.40;;;;;;5039137;28;20419;-79
2022/10/27 05:04:42;;;;;;;17.33;7.00;;;9.50;42.40;;;;;;5045207;28;20290;-79
2022/10/27 05:07:12;;;;;;;17.30;7.13;;;9.60;42.50;;;;;;5044649;28;20921;-79
2022/10/27 05:09:38;;;;;;;20.03;7.13;;;9.60;42.50;;;;;;5054693;28;20502;-80
2022/10/27 05:12:06;;;;;;;17.00;7.20;;;9.60;42.50;;;;;;5046972;28;20938;-79
2022/10/27 05:14:54;;;;;;;17.77;6.63;;;9.50;42.40;;;;;;5048079;28;20183;-79
2022/10/27 05:17:37;;;;;;;18.60;6.80;;;9.50;42.40;;;;;;5053295;28;20414;-79
2022/10/27 05:20:13;;;;;;;29.27;6.77;;;9.50;42.60;;;;;;5052934;28;20426;-79
2022/10/27 05:22:39;;;;;;;22.57;6.70;;;9.50;42.40;;;;;;5054119;28;20413;-79
2022/10/27 05:25:07;;;;;;;22.13;7.43;;;9.60;42.50;;;;;;5045393;28;20972;-79
2022/10/27 05:27:33;;;;;;;19.90;7.70;;;9.60;42.50;;;;;;5038925;28;20532;-74
2022/10/27 05:30:01;;;;;;;20.43;7.60;;;9.70;42.60;;;;;;5050010;28;20458;-74
2022/10/27 05:32:26;;;;;;;35.40;8.30;;;9.70;42.60;;;;;;5052194;28;20434;-74
2022/10/27 05:34:52;;;;;;;25.20;8.43;;;9.70;42.60;;;;;;5046203;28;20445;-74
2022/10/27 05:37:18;;;;;;;44.37;8.00;;;9.80;42.70;;;;;;5039405;28;20184;-74
2022/10/27 05:39:43;;;;;;;38.87;8.50;;;9.80;42.70;;;;;;5042490;28;20267;-75
2022/10/27 05:42:09;;;;;;;36.43;8.20;;;9.90;42.80;;;;;;5048402;28;20670;-75
2022/10/27 05:44:36;;;;;;;27.47;7.77;;;9.90;42.80;;;;;;5036512;28;20458;-75
2022/10/27 05:47:02;;;;;;;12.30;7.33;;;9.90;43.00;;;;;;5042239;28;20196;-74
2022/10/27 05:49:28;;;;;;;29.30;7.70;;;9.90;42.80;;;;;;5042167;28;20466;-75
2022/10/27 05:51:54;;;;;;;39.43;8.17;;;9.90;42.80;;;;;;5051812;28;20434;-75
2022/10/27 05:54:20;;;;;;;18.60;6.93;;;9.90;42.70;;;;;;5044045;28;21160;-73
2022/10/27 05:56:49;;;;;;;27.97;8.07;;;10.00;41.90;;;;;;5048729;28;20499;-75
2022/10/27 05:59:48;;;;;;;26.03;8.33;;;10.00;41.80;;;;;;5046956;28;20639;-85
2022/10/27 06:02:42;;;;;;;28.63;8.07;;;10.10;41.90;;;;;;5048410;28;20922;-83
2022/10/27 06:05:18;;;;;;;20.90;8.00;;;10.20;42.20;;;;;;5048458;28;20445;-82
2022/10/27 06:07:55;;;;;;;26.33;8.33;;;10.20;42.10;;;;;;5044376;28;20446;-86
2022/10/27 06:10:54;;;;;;;31.47;9.10;;;10.30;42.10;;;;;;5047379;28;20438;-88
2022/10/27 06:13:20;;;;;;;35.63;8.10;;;10.30;42.10;;;;;;5044111;28;20449;-87
2022/10/27 06:15:46;;;;;;;54.57;9.30;;;10.40;48.90;;;;;;5042962;28;20469;-89
2022/10/27 06:18:48;;;;;;;78.97;9.73;;;10.50;48.10;;;;;;5058535;28;20270;-88
2022/10/27 06:21:14;;;;;;;41.30;9.40;;;10.50;47.80;;;;;;5048226;28;20535;-77
2022/10/27 06:23:49;;;;;;;27.20;8.10;;;10.60;42.50;;;;;;5045009;28;20465;-80
2022/10/27 06:26:24;;;;;;;48.17;10.60;;;10.70;42.50;;;;;;5038121;28;20190;-78
2022/10/27 06:28:50;;;;;;;46.90;10.30;;;10.70;42.50;;;;;;5040860;28;20858;-78
2022/10/27 06:31:18;;;;;;;31.50;9.40;;;10.70;42.50;;;;;;5049000;28;20433;-78
2022/10/27 06:33:48;;;;;;;97.57;11.50;;;10.70;42.50;;;;;;5046546;28;20202;-78
2022/10/27 06:36:18;;;;;;;112.73;10.83;;;10.70;47.60;;;;;;5047380;28;20932;-78
2022/10/27 06:38:44;;;;;;;43.27;9.90;;;10.80;52.40;;;;;;5044578;28;20491;-78
2022/10/27 06:41:10;;;;;;;84.30;10.13;;;10.80;54.50;;;;;;5043851;28;20433;-79
2022/10/27 06:43:36;;;;;;;33.03;9.50;;;10.90;60.80;;;;;;5045097;28;20201;-80
2022/10/27 06:46:06;;;;;;;31.67;9.73;;;11.00;56.70;;;;;;5041344;28;20183;-80
2022/10/27 06:49:00;;;;;;;32.13;10.10;;;11.00;59.20;;;;;;5046675;28;20239;-81
2022/10/27 06:51:36;;;;;;;26.50;9.13;;;11.10;61.00;;;;;;5038948;28;20488;-80
2022/10/27 06:54:02;;;;;;;27.23;9.50;;;11.30;59.00;;;;;;5045817;28;20537;-80
2022/10/27 06:56:30;;;;;;;20.77;8.83;;;11.30;56.80;;;;;;5043209;28;20532;-77
2022/10/27 06:59:01;;;;;;;28.53;9.40;;;11.40;54.30;;;;;;5051106;28;20199;-78
2022/10/27 07:01:36;;;;;;;20.60;9.03;;;11.50;57.30;;;;;;5042717;28;20445;-78
2022/10/27 07:04:12;;;;;;;19.20;9.40;;;11.60;45.60;;;;;;5051151;28;20772;-78
2022/10/27 07:06:48;;;;;;;30.47;8.50;;;11.60;51.60;;;;;;5051477;28;20531;-78
2022/10/27 07:09:30;;;;;;;32.60;8.67;;;11.70;44.90;;;;;;5056297;28;20999;-78
2022/10/27 07:12:48;;;;;;;23.83;9.77;;;11.80;43.50;;;;;;5051970;28;20408;-80
2022/10/27 07:15:35;;;;;;;16.33;8.43;;;11.90;43.60;;;;;;5043537;28;20423;-80
2022/10/27 07:18:18;;;;;;;15.53;8.13;;;12.00;43.60;;;;;;5046316;28;20790;-79
2022/10/27 07:20:54;;;;;;;19.23;9.23;;;12.00;43.70;;;;;;5055753;28;20973;-80
2022/10/27 07:23:20;;;;;;;27.87;9.67;;;12.10;44.00;;;;;;5051251;28;20926;-79
2022/10/27 07:26:06;;;;;;;22.73;9.73;;;12.20;51.70;;;;;;5056989;28;20405;-77
2022/10/27 07:28:32;;;;;;;19.80;8.80;;;12.30;52.50;;;;;;5046337;28;20207;-78
2022/10/27 07:30:58;;;;;;;29.93;10.30;;;12.40;48.40;;;;;;5052809;28;20438;-73
2022/10/27 07:33:24;;;;;;;21.77;9.80;;;12.50;50.30;;;;;;5054893;28;20444;-73
2022/10/27 07:35:51;;;;;;;13.83;9.10;;;12.60;44.20;;;;;;5053002;28;20820;-73
2022/10/27 07:38:19;;;;;;;30.47;10.50;;;12.60;44.20;;;;;;5051576;28;20199;-73
2022/10/27 07:40:45;;;;;;;20.23;9.47;;;12.70;44.30;;;;;;5046615;28;20497;-73
2022/10/27 07:43:18;;;;;;;16.60;9.00;;;12.70;44.30;;;;;;5043494;28;20513;-73
2022/10/27 07:45:44;;;;;;;16.60;9.00;;;12.70;44.30;;;;;;5048955;28;20464;-73
2022/10/27 07:48:12;;;;;;;13.73;8.63;;;12.80;44.40;;;;;;5053300;28;20913;-73
2022/10/27 07:50:38;;;;;;;17.20;8.60;;;12.80;44.40;;;;;;5044828;28;20569;-73
2022/10/27 07:53:04;;;;;;;15.77;8.30;;;12.80;44.40;;;;;;5057190;28;20438;-73
2022/10/27 07:55:31;;;;;;;16.50;8.53;;;12.90;44.50;;;;;;5055328;28;20975;-73
2022/10/27 07:58:03;;;;;;;16.13;7.77;;;12.90;44.70;;;;;;5055248;28;20980;-73
2022/10/27 08:00:32;;;;;;;12.37;8.00;;;13.00;44.50;;;;;;5051628;28;22405;-73
2022/10/27 08:02:59;;;;;;;19.37;8.50;;;13.00;44.50;;;;;;5059667;28;20803;-73
2022/10/27 08:05:25;;;;;;;14.03;8.00;;;13.10;44.70;;;;;;5046670;28;20434;-73
2022/10/27 08:07:57;;;;;;;15.20;8.53;;;13.20;44.80;;;;;;5055546;28;20486;-73
2022/10/27 08:10:23;;;;;;;15.30;8.63;;;13.20;44.70;;;;;;5051910;28;20450;-73
2022/10/27 08:12:49;;;;;;;14.03;7.70;;;13.30;44.80;;;;;;5041057;28;20445;-75
2022/10/27 08:15:15;;;;;;;16.40;8.43;;;13.30;44.90;;;;;;5044549;28;20188;-74
2022/10/27 08:17:41;;;;;;;23.03;7.63;;;13.40;45.00;;;;;;5045030;28;20181;-74
2022/10/27 08:20:08;;;;;;;17.17;8.30;;;13.50;45.00;;;;;;5044842;28;20465;-75
2022/10/27 08:22:34;;;;;;;14.17;7.80;;;13.50;45.00;;;;;;5049305;28;20264;-75
2022/10/27 08:24:59;;;;;;;14.00;8.10;;;13.60;45.20;;;;;;5055559;28;20418;-74
2022/10/27 08:27:25;;;;;;;15.47;7.87;;;13.70;45.20;;;;;;5050180;28;20192;-75
2022/10/27 08:29:54;;;;;;;12.50;7.07;;;13.80;45.30;;;;;;5052534;28;20257;-74
2022/10/27 08:32:25;;;;;;;14.90;7.77;;;13.80;45.30;;;;;;5048450;28;20183;-74
2022/10/27 08:34:55;;;;;;;24.13;7.87;;;13.90;45.30;;;;;;5049881;28;20430;-74
2022/10/27 08:37:20;;;;;;;11.23;6.83;;;14.00;45.50;;;;;;5048899;28;20434;-74
2022/10/27 08:40:07;;;;;;;14.30;8.07;;;14.00;45.50;;;;;;5052440;28;20438;-75
2022/10/27 08:42:48;;;;;;;12.73;8.20;;;14.10;40.00;;;;;;5048099;28;20183;-73
2022/10/27 08:45:26;;;;;;;23.63;8.07;;;14.20;36.40;;;;;;5056159;28;20483;-73
2022/10/27 08:47:57;;;;;;;16.67;7.57;;;14.30;37.00;;;;;;5045163;28;21002;-73
2022/10/27 08:50:28;;;;;;;9.47;7.17;;;14.40;29.70;;;;;;5054652;28;20422;-74
2022/10/27 08:53:07;;;;;;;18.20;7.23;;;14.40;28.60;;;;;;5047747;28;20505;-73
2022/10/27 08:55:51;;;;;;;16.03;6.13;;;14.50;29.00;;;;;;5040718;28;20503;-73
2022/10/27 08:58:34;;;;;;;16.57;6.70;;;14.60;29.80;;;;;;5045441;28;20430;-75
2022/10/27 09:01:20;;;;;;;14.90;6.33;;;14.70;30.00;;;;;;5055679;28;20442;-75
2022/10/27 09:04:04;;;;;;;10.00;5.33;;;14.80;33.50;;;;;;5049847;28;20435;-74
2022/10/27 09:06:55;;;;;;;11.90;4.40;;;14.90;29.20;;;;;;5046925;28;20815;-74
2022/10/27 09:09:29;;;;;;;7.53;4.20;;;15.20;16.20;;;;;;5047189;28;20463;-75
2022/10/27 09:12:40;;;;;;;11.03;4.93;;;15.30;12.50;;;;;;5051066;28;20433;-75
2022/10/27 09:15:15;;;;;;;6.80;4.10;;;15.50;8.70;;;;;;4971452;28;20505;-75
2022/10/27 09:17:46;;;;;;;6.40;4.10;;;15.60;7.80;;;;;;4974574;28;20441;-75
2022/10/27 09:20:37;;;;;;;9.33;4.20;;;15.80;1.00;;;;;;4971805;28;20511;-75
2022/10/27 09:23:16;;;;;;;10.43;4.30;;;15.90;1.00;;;;;;4970774;28;20420;-76
2022/10/27 09:25:46;;;;;;;11.73;3.70;;;16.00;1.00;;;;;;4974044;28;20442;-76
2022/10/27 09:28:35;;;;;;;13.60;3.70;;;16.10;1.00;;;;;;4972096;28;20462;-78
2022/10/27 09:31:13;;;;;;;11.63;3.80;;;16.20;1.00;;;;;;4955016;28;20503;-76
2022/10/27 09:34:26;;;;;;;9.50;4.03;;;16.30;1.00;;;;;;4972464;28;20441;-77
2022/10/27 09:36:53;;;;;;;4.40;3.83;;;16.50;1.00;;;;;;4921257;29;20444;-77
2022/10/27 09:39:25;;;;;;;6.97;3.80;;;16.70;1.00;;;;;;4910985;29;20423;-76
2022/10/27 09:41:54;;;;;;;4.10;3.70;;;16.80;1.00;;;;;;4911889;29;20432;-76
2022/10/27 09:44:23;;;;;;;6.70;3.80;;;16.80;1.00;;;;;;4914817;29;20472;-76
2022/10/27 09:46:53;;;;;;;6.13;3.47;;;16.90;1.00;;;;;;4906130;29;20451;-76
2022/10/27 09:49:25;;;;;;;6.00;3.27;;;17.00;1.00;;;;;;4910292;29;20492;-76
2022/10/27 09:52:09;;;;;;;9.70;3.80;;;17.10;1.00;;;;;;4940130;28;20524;-77
2022/10/27 09:54:38;;;;;;;3.80;2.83;;;17.30;1.00;;;;;;4968834;28;20435;-76
2022/10/27 09:57:10;;;;;;;9.70;3.80;;;17.30;1.00;;;;;;4972352;28;20428;-76
2022/10/27 09:59:37;;;;;;;9.20;3.20;;;17.40;1.00;;;;;;4971651;28;20780;-76
2022/10/27 10:02:19;;;;;;;3.33;3.03;;;17.40;1.00;;;;;;4976834;28;20445;-80
2022/10/27 10:04:46;;;;;;;5.80;2.60;;;17.50;1.00;;;;;;4969594;28;20427;-76
2022/10/27 10:07:34;;;;;;;6.73;2.70;;;17.70;1.00;;;;;;4969739;28;20414;-75
2022/10/27 10:10:23;;;;;;;5.17;3.30;;;17.80;1.00;;;;;;4966793;28;20541;-76
2022/10/27 10:13:13;;;;;;;5.93;2.77;;;17.80;1.00;;;;;;4998063;28;20407;-78
2022/10/27 10:16:15;;;;;;;3.20;2.80;;;17.90;1.00;;;;;;5047628;28;20581;-76
2022/10/27 10:19:05;;;;;;;10.13;2.77;;;18.10;1.00;;;;;;4971897;28;20418;-76
2022/10/27 10:21:45;;;;;;;6.20;2.80;;;18.10;1.00;;;;;;4894509;29;20438;-76
2022/10/27 10:24:23;;;;;;;9.13;2.70;;;18.30;1.00;;;;;;4894009;29;20777;-75
2022/10/27 10:27:04;;;;;;;6.37;2.60;;;18.40;1.00;;;;;;4896639;29;20454;-76
2022/10/27 10:29:45;;;;;;;3.93;1.80;;;18.50;1.00;;;;;;4895056;29;20466;-76
2022/10/27 10:32:22;;;;;;;3.80;2.00;;;18.60;1.00;;;;;;4899838;29;20919;-76
2022/10/27 10:34:51;;;;;;;8.10;2.70;;;18.70;1.00;;;;;;4910639;29;20405;-76
2022/10/27 10:37:48;;;;;;;4.00;2.60;;;18.80;1.00;;;;;;4904623;29;20464;-76
2022/10/27 10:40:26;;;;;;;3.83;2.10;;;18.90;1.00;;;;;;4904547;29;20443;-76
2022/10/27 10:43:05;;;;;;;4.90;2.57;;;19.00;1.00;;;;;;4879420;29;20444;-76
2022/10/27 10:45:35;;;;;;;3.70;2.77;;;19.10;1.00;;;;;;4892668;29;20416;-76
2022/10/27 10:48:14;;;;;;;3.43;2.40;;;19.20;1.00;;;;;;4902062;29;20813;-76
2022/10/27 10:50:46;;;;;;;5.77;2.87;;;19.20;1.00;;;;;;4896151;29;20437;-76
2022/10/27 10:53:22;;;;;;;11.93;2.50;;;19.20;1.00;;;;;;4937211;29;20734;-76
2022/10/27 10:55:49;;;;;;;3.70;2.23;;;19.20;1.00;;;;;;4966334;28;20418;-76
2022/10/27 10:58:18;;;;;;;4.90;2.40;;;19.30;1.00;;;;;;4992721;28;20468;-76
2022/10/27 11:00:58;;;;;;;3.07;2.00;;;19.30;1.00;;;;;;5050679;28;21111;-76
2022/10/27 11:03:28;;;;;;;5.00;2.30;;;19.50;1.00;;;;;;5052226;28;20424;-76
2022/10/27 11:05:58;;;;;;;6.83;2.40;;;19.60;1.00;;;;;;5045494;28;20430;-76
2022/10/27 11:08:32;;;;;;;4.70;2.47;;;19.60;1.00;;;;;;5035362;28;20420;-76
2022/10/27 11:11:17;;;;;;;6.10;2.40;;;19.70;1.00;;;;;;5053185;28;20428;-76
2022/10/27 11:13:56;;;;;;;4.90;2.27;;;19.80;1.00;;;;;;5049130;28;20788;-76
2022/10/27 11:16:25;;;;;;;6.57;2.40;;;19.90;1.00;;;;;;5039881;28;20403;-76
2022/10/27 11:18:59;;;;;;;5.10;2.30;;;20.00;1.00;;;;;;5041879;28;20509;-76
2022/10/27 11:21:50;;;;;;;7.17;2.20;;;20.10;1.00;;;;;;5050321;28;20430;-76
2022/10/27 11:24:38;;;;;;;7.87;2.23;;;20.20;1.00;;;;;;5049917;28;20422;-76
2022/10/27 11:27:27;;;;;;;3.50;2.27;;;20.20;1.00;;;;;;5042519;28;20519;-76
2022/10/27 11:30:21;;;;;;;7.13;2.37;;;20.30;1.00;;;;;;5039306;28;20440;-76
2022/10/27 11:33:09;;;;;;;8.40;2.00;;;20.30;1.00;;;;;;5048480;28;20444;-76
2022/10/27 11:35:40;;;;;;;3.53;2.53;;;20.40;1.00;;;;;;5049407;28;20472;-76
2022/10/27 11:38:21;;;;;;;5.10;2.13;;;20.50;1.00;;;;;;5050358;28;20478;-76
2022/10/27 11:41:12;;;;;;;4.93;2.23;;;20.50;1.00;;;;;;5039060;28;20387;-76
2022/10/27 11:44:14;;;;;;;3.20;2.57;;;20.60;1.00;;;;;;5048347;28;20438;-76
2022/10/27 11:46:56;;;;;;;5.07;2.40;;;20.50;1.00;;;;;;4981140;28;20517;-76
2022/10/27 11:49:48;;;;;;;5.83;2.47;;;20.70;1.00;;;;;;4971018;28;20856;-77
2022/10/27 11:52:30;;;;;;;3.33;1.80;;;20.80;1.00;;;;;;4975772;28;20609;-77
2022/10/27 11:54:57;;;;;;;7.20;2.53;;;20.80;1.00;;;;;;4975527;28;20394;-77
2022/10/27 11:57:40;;;;;;;2.93;2.03;;;21.00;1.00;;;;;;4975523;28;20798;-77
2022/10/27 12:00:20;;;;;;;7.23;2.30;;;21.00;1.00;;;;;;4959455;28;20521;-77
2022/10/27 12:02:58;;;;;;;5.53;2.47;;;21.00;1.00;;;;;;4967838;28;20517;-77
2022/10/27 12:05:45;;;;;;;8.10;2.60;;;21.00;1.00;;;;;;4984188;28;20428;-77
2022/10/27 12:08:48;;;;;;;6.70;2.60;;;21.10;1.00;;;;;;4974952;28;20497;-77
2022/10/27 12:11:46;;;;;;;3.87;2.17;;;21.20;1.00;;;;;;4972806;28;20407;-77
2022/10/27 12:14:52;;;;;;;7.93;2.60;;;21.30;1.00;;;;;;4972797;28;20432;-77
2022/10/27 12:17:30;;;;;;;9.40;2.77;;;21.20;1.00;;;;;;4948299;29;20919;-76
2022/10/27 12:20:03;;;;;;;8.70;2.30;;;21.20;1.00;;;;;;4946892;29;20433;-76
2022/10/27 12:23:00;;;;;;;6.80;2.40;;;21.20;1.00;;;;;;4952963;29;20431;-76
2022/10/27 12:26:01;;;;;;;6.80;2.17;;;21.20;1.00;;;;;;5032182;28;20452;-76
2022/10/27 12:28:49;;;;;;;2.27;2.13;;;21.30;1.00;;;;;;5033531;28;20961;-76
2022/10/27 12:31:28;;;;;;;7.93;2.50;;;21.40;1.00;;;;;;5003533;28;20495;-75
2022/10/27 12:33:58;;;;;;;5.77;2.50;;;21.50;1.00;;;;;;5032153;28;20428;-76
2022/10/27 12:36:40;;;;;;;13.50;3.10;;;21.50;1.00;;;;;;5033634;28;20420;-76
2022/10/27 12:39:32;;;;;;;5.37;2.00;;;21.50;1.00;;;;;;5021512;28;20413;-76
2022/10/27 12:42:21;;;;;;;18.13;3.37;;;21.70;1.00;;;;;;5032817;28;20747;-76
2022/10/27 12:45:09;;;;;;;5.17;2.10;;;21.70;1.00;;;;;;5019084;28;20427;-76
2022/10/27 12:47:56;;;;;;;10.30;2.63;;;21.80;1.00;;;;;;4980221;28;20450;-77
2022/10/27 12:50:49;;;;;;;5.63;2.77;;;21.90;1.00;;;;;;4983516;28;20839;-78
2022/10/27 12:53:15;;;;;;;9.97;3.13;;;21.80;1.00;;;;;;4993443;28;20438;-78
2022/10/27 12:56:07;;;;;;;6.23;2.80;;;21.80;1.00;;;;;;4977244;28;20431;-76
2022/10/27 12:59:15;;;;;;;10.80;2.40;;;21.80;1.00;;;;;;4994041;28;20205;-78
2022/10/27 13:02:00;;;;;;;6.43;3.17;;;21.80;1.00;;;;;;4955040;29;20433;-78
2022/10/27 13:04:49;;;;;;;16.83;3.07;;;21.70;1.00;;;;;;4952640;29;20525;-75
2022/10/27 13:07:14;;;;;;;10.23;2.50;;;21.70;1.00;;;;;;4966856;28;20430;-75
2022/10/27 13:10:19;;;;;;;12.47;2.57;;;21.70;1.00;;;;;;4952411;28;21003;-75
2022/10/27 13:13:34;;;;;;;6.07;2.53;;;21.70;1.00;;;;;;4955439;28;20199;-76
2022/10/27 13:16:19;;;;;;;8.50;2.90;;;21.80;1.00;;;;;;4906836;29;20413;-76
2022/10/27 13:19:06;;;;;;;12.70;3.07;;;21.70;1.00;;;;;;4916229;29;20440;-75
2022/10/27 13:21:41;;;;;;;11.00;2.63;;;21.60;1.00;;;;;;4899973;29;20448;-76
2022/10/27 13:24:16;;;;;;;10.50;2.83;;;21.50;1.00;;;;;;4914392;29;20929;-75
2022/10/27 13:26:53;;;;;;;4.97;2.40;;;21.70;1.00;;;;;;4935311;29;20476;-76
2022/10/27 13:29:55;;;;;;;18.73;3.17;;;21.70;1.00;;;;;;4935458;29;20949;-75
2022/10/27 13:32:46;;;;;;;7.70;2.57;;;21.80;1.00;;;;;;4935395;29;20922;-75
2022/10/27 13:35:12;;;;;;;8.40;2.93;;;22.00;1.00;;;;;;4944873;29;20413;-75
2022/10/27 13:37:37;;;;;;;9.07;3.10;;;22.00;1.00;;;;;;4957713;28;20432;-75
2022/10/27 13:40:26;;;;;;;8.27;2.80;;;22.00;1.00;;;;;;5001215;28;20279;-75
2022/10/27 13:42:56;;;;;;;6.63;1.97;;;22.00;1.00;;;;;;4960053;28;20214;-75
2022/10/27 13:45:33;;;;;;;5.97;2.40;;;22.00;1.00;;;;;;4966489;28;20898;-76
2022/10/27 13:48:10;;;;;;;6.13;2.20;;;22.00;1.00;;;;;;4966947;28;20432;-76
2022/10/27 13:50:37;;;;;;;7.90;2.80;;;22.00;1.00;;;;;;4972922;28;20471;-76
2022/10/27 13:53:15;;;;;;;5.70;2.47;;;22.10;1.00;;;;;;5022648;28;20431;-75
2022/10/27 13:55:50;;;;;;;13.10;2.40;;;22.20;1.00;;;;;;5031606;28;20959;-75
2022/10/27 13:58:25;;;;;;;5.87;2.80;;;22.10;1.00;;;;;;5022100;28;20422;-76
2022/10/27 14:01:22;;;;;;;5.80;2.40;;;22.20;1.00;;;;;;5027364;28;20423;-75
2022/10/27 14:04:38;;;;;;;12.97;3.10;;;22.30;1.00;;;;;;5024207;28;20767;-76
2022/10/27 14:07:10;;;;;;;6.20;2.90;;;22.20;1.00;;;;;;4956438;28;20443;-76
2022/10/27 14:09:45;;;;;;;4.73;2.30;;;22.20;1.00;;;;;;4930097;29;21013;-76
2022/10/27 14:12:31;;;;;;;16.50;2.90;;;22.10;1.00;;;;;;4951816;28;20445;-77
2022/10/27 14:15:26;;;;;;;15.97;2.40;;;22.10;1.00;;;;;;4953527;29;20405;-76
2022/10/27 14:17:54;;;;;;;14.97;3.40;;;22.10;1.00;;;;;;4929675;28;20451;-76
2022/10/27 14:20:26;;;;;;;9.37;2.87;;;22.10;1.00;;;;;;4966376;28;20429;-76
2022/10/27 14:23:05;;;;;;;16.50;3.10;;;22.10;1.00;;;;;;4972705;28;20469;-76
2022/10/27 14:25:32;;;;;;;9.83;2.97;;;22.10;1.00;;;;;;4960250;28;20432;-80
2022/10/27 14:28:20;;;;;;;8.77;2.70;;;22.20;1.00;;;;;;4972651;28;20456;-75
2022/10/27 14:31:07;;;;;;;9.10;3.03;;;22.20;1.00;;;;;;4972634;28;20429;-77
2022/10/27 14:33:37;;;;;;;6.23;2.57;;;22.20;1.00;;;;;;4972572;28;20780;-75
2022/10/27 14:36:23;;;;;;;10.63;2.40;;;22.30;1.00;;;;;;4955922;28;20426;-76
2022/10/27 14:39:14;;;;;;;24.03;3.10;;;22.30;1.00;;;;;;5051631;28;20421;-77